Date,TemperatureHighF,TemperatureAvgF,TemperatureLowF,DewpointHighF,DewpointAvgF,DewpointLowF,HumidityHigh,HumidityAvg,HumidityLow,PressureMaxIn,PressureMinIn,WindSpeedMaxMPH,WindSpeedAvgMPH,GustSpeedMaxMPH,PrecipitationSumIn
2014-1-1,83.8,70.6,61.6,71.2,64.5,56.9,97,82,64,30.15,29.98,13,6,16,0.00
2014-1-2,81.8,72.4,67.0,72.6,69.3,66.4,99,90,73,29.98,29.82,28,6,34,0.15
2014-1-3,68.8,53.9,46.4,67.6,42.6,31.7,96,67,39,30.18,29.88,21,11,30,0.03
2014-1-4,64.8,57.1,46.8,63.4,54.1,41.9,98,90,83,30.15,29.98,12,5,17,0.07
2014-1-5,82.1,70.7,62.7,70.6,66.3,61.8,98,87,65,29.99,29.89,15,4,19,0.00
2014-1-6,80.4,64.4,50.1,71.9,58.3,31.0,99,82,47,30.21,29.91,22,8,31,0.01
2014-1-7,57.0,48.1,41.9,34.0,25.5,18.3,65,42,23,30.33,30.19,19,10,26,0.00
2014-1-8,66.8,55.4,43.3,60.8,50.4,33.1,96,83,65,30.29,30.15,21,9,29,0.08
2014-1-9,77.4,71.8,61.6,71.3,68.5,60.4,98,89,80,30.19,30.06,13,6,19,0.00
2014-1-10,82.1,72.8,67.9,71.9,69.0,66.7,97,89,67,30.11,29.98,12,3,17,0.00
2014-1-11,81.7,73.7,68.6,74.1,70.7,67.1,98,91,75,30.04,29.92,18,6,26,0.13
2014-1-12,78.5,67.8,56.5,68.1,58.0,49.5,98,74,38,30.13,29.97,13,5,17,0.01
2014-1-13,81.6,67.7,53.6,69.7,62.2,50.8,93,83,66,30.10,29.94,12,4,17,0.00
2014-1-14,78.0,70.1,65.2,73.3,67.0,60.4,97,90,74,29.96,29.88,17,4,23,0.33
2014-1-15,65.2,59.5,54.4,60.9,53.5,47.9,92,81,64,30.02,29.90,12,4,15,0.00
2014-1-16,61.4,53.0,42.4,56.0,41.1,32.2,92,66,40,30.11,29.90,20,9,28,0.02
2014-1-17,67.3,45.8,37.7,49.1,37.9,32.2,95,77,30,30.18,30.07,12,2,16,0.00
2014-1-18,64.8,53.4,38.8,53.6,42.2,35.1,97,69,39,30.22,30.07,14,6,21,0.00
2014-1-19,68.8,53.8,36.5,58.2,46.9,34.1,95,79,59,30.20,30.08,13,3,18,0.00
2014-1-20,75.7,61.9,49.6,61.2,55.9,48.8,99,83,55,30.12,29.99,11,2,15,0.01
2014-1-21,72.3,63.7,57.1,64.2,60.2,55.3,98,89,65,29.99,29.82,19,5,28,0.00
2014-1-22,62.1,53.2,41.9,55.5,43.4,37.9,88,70,50,30.14,29.88,20,8,27,0.00
2014-1-23,69.7,52.3,37.6,40.5,35.0,29.5,91,58,24,30.26,30.12,13,4,17,0.00
2014-1-24,68.9,54.3,45.4,43.2,38.5,30.9,84,58,33,30.36,30.18,20,8,26,0.00
2014-1-25,70.4,56.7,46.2,57.8,49.4,41.3,96,78,59,30.21,29.99,9,3,13,0.00
2014-1-26,70.1,62.7,52.3,63.5,58.8,51.2,97,87,77,30.04,29.93,8,2,12,0.00
2014-1-27,80.1,67.4,58.1,68.3,61.8,55.4,98,83,59,29.98,29.89,14,3,18,0.00
2014-1-28,79.7,67.2,57.7,68.4,62.6,57.3,99,87,56,30.01,29.91,13,2,16,0.01
2014-1-29,65.0,59.5,50.3,64.7,57.9,48.6,99,94,78,30.10,29.92,18,7,25,0.55
2014-1-30,56.8,54.1,51.1,56.2,53.4,50.3,98,97,97,30.09,29.99,13,6,18,1.38
2014-1-31,73.9,64.1,55.5,70.4,63.0,54.9,99,96,88,30.04,29.94,10,4,14,0.49
2014-2-1,80.1,71.3,66.4,73.3,68.1,-99.9,99,92,72,30.07,29.98,10,2,12,0.00
2014-2-2,86.0,71.9,64.3,71.9,65.8,60.7,99,83,47,30.08,29.96,13,2,20,0.01
2014-2-3,83.0,72.0,64.3,73.2,68.6,63.6,99,90,70,30.05,29.96,12,2,17,0.01
2014-2-4,85.5,74.0,67.6,73.0,68.2,-99.9,99,85,54,30.05,29.95,15,4,20,0.01
2014-2-5,82.0,74.2,67.6,74.8,71.4,66.4,98,91,77,30.03,29.93,16,4,23,0.00
2014-2-6,82.1,73.2,69.3,73.0,69.7,-99.9,99,90,69,30.06,29.94,9,3,15,0.02
2014-2-7,83.9,67.4,57.5,68.7,61.8,55.1,94,83,57,30.09,29.99,15,6,20,0.00
2014-2-8,79.5,68.8,62.6,71.5,65.4,60.3,98,90,75,30.05,29.96,12,4,17,0.00
2014-2-9,79.4,66.5,59.1,65.6,61.2,54.9,95,84,60,30.06,29.96,14,4,19,0.00
2014-2-10,81.3,65.3,53.4,62.7,57.1,-99.9,97,78,49,30.04,29.95,11,4,15,0.00
2014-2-11,79.1,65.6,55.3,66.6,59.6,53.7,95,82,62,30.01,29.94,13,3,18,0.00
2014-2-12,79.3,66.4,54.8,70.7,62.7,53.9,98,89,73,29.98,29.75,20,4,27,0.07
2014-2-13,69.2,65.1,53.5,67.7,57.9,-99.9,97,79,59,29.93,29.68,23,13,32,0.09
2014-2-14,67.4,55.2,44.4,51.2,47.6,41.7,95,78,45,30.05,29.92,11,3,15,0.00
2014-2-15,77.5,64.2,51.9,63.6,55.8,45.6,96,76,44,30.09,29.90,21,7,30,0.01
2014-2-16,76.0,57.9,43.7,52.8,47.0,39.8,96,71,28,30.14,30.06,13,4,19,0.00
2014-2-17,84.1,62.5,47.6,58.5,50.9,42.0,94,69,28,30.17,30.07,11,3,14,0.00
2014-2-18,84.6,65.8,51.9,62.4,57.8,50.8,97,78,40,30.18,30.07,10,2,14,0.00
2014-2-19,84.6,67.9,55.6,66.1,60.9,54.2,96,80,47,30.12,30.00,12,3,17,0.01
2014-2-20,87.0,72.2,59.9,69.7,65.6,58.9,98,82,54,30.10,29.98,14,4,20,0.01
2014-2-21,83.1,74.9,70.4,73.3,70.8,68.4,97,87,70,30.01,29.95,18,6,29,0.00
2014-2-22,83.2,74.2,68.6,74.1,70.9,67.6,99,90,70,30.05,29.94,12,3,18,0.00
2014-2-23,83.3,72.6,65.4,72.1,68.6,65.1,99,89,61,30.02,29.93,13,3,18,0.01
2014-2-24,82.9,72.0,64.9,71.2,67.3,64.0,98,86,63,30.01,29.91,13,4,19,0.01
2014-2-25,80.1,69.0,62.9,69.0,65.6,61.6,99,90,65,30.01,29.89,13,4,20,0.00
2014-2-26,76.9,68.9,59.1,71.2,65.6,-99.9,99,91,74,29.93,29.71,18,6,26,0.07
2014-2-27,72.9,64.8,55.8,68.5,60.6,-99.9,96,88,70,29.92,29.72,15,6,20,0.30
2014-2-28,72.4,60.1,52.7,54.9,50.6,-99.9,97,74,49,30.04,29.87,12,5,15,0.04
2014-3-1,80.5,62.9,47.5,59.7,52.7,45.9,96,73,36,30.15,30.01,13,4,19,0.00
2014-3-2,83.9,67.1,55.2,64.3,59.3,53.9,98,79,38,30.14,30.01,12,4,16,0.01
2014-3-3,79.5,67.9,58.3,65.6,61.8,-99.9,98,83,61,30.03,29.94,13,3,18,0.01
2014-3-4,84.2,69.6,58.7,69.2,64.1,58.1,99,84,52,29.99,29.90,11,2,15,0.00
2014-3-5,83.8,71.6,62.3,70.4,65.3,-99.9,98,83,50,29.98,29.86,12,3,16,0.01
2014-3-6,71.9,68.8,65.4,70.2,67.0,64.2,97,94,90,29.94,29.70,15,5,20,0.85
2014-3-7,72.8,66.8,57.2,68.6,59.8,50.5,95,79,60,29.99,29.73,22,10,30,0.01
2014-3-8,73.6,60.0,50.5,57.6,54.0,-99.9,93,82,50,30.10,29.98,12,4,15,0.00
2014-3-9,80.6,65.1,52.3,63.5,58.0,51.4,98,80,46,30.14,30.03,12,3,15,0.01
2014-3-10,80.1,66.6,57.3,61.9,58.7,54.9,97,78,48,30.08,29.94,12,3,17,0.00
2014-3-11,78.8,67.9,57.8,66.1,62.1,56.7,98,83,54,29.97,29.79,11,2,16,0.01
2014-3-12,80.9,73.3,68.3,71.5,67.8,-99.9,94,85,63,29.82,29.71,18,8,26,0.11
2014-3-13,75.4,67.0,55.2,66.1,50.4,37.6,90,59,27,30.12,29.82,17,9,24,0.00
2014-3-14,79.3,62.9,46.3,55.6,49.3,42.6,88,64,37,30.20,30.07,18,5,23,0.00
2014-3-15,85.0,67.4,54.7,61.5,56.8,51.8,91,71,39,30.11,29.95,13,3,17,0.00
2014-3-16,82.6,71.8,59.3,66.0,63.0,57.6,95,75,52,29.98,29.73,21,7,32,0.00
2014-3-17,79.4,75.0,72.1,73.8,70.4,-99.9,94,87,75,29.76,29.61,22,10,38,0.09
2014-3-18,78.8,70.3,60.7,73.1,61.2,53.8,96,75,46,29.97,29.63,21,9,36,0.85
2014-3-19,79.4,65.5,56.3,66.3,59.2,52.8,97,81,60,30.04,29.94,15,5,21,0.00
2014-3-20,79.9,66.2,58.3,66.0,61.2,56.8,96,84,59,30.01,29.91,17,6,23,0.00
2014-3-21,87.2,71.9,62.2,70.2,64.2,-99.9,94,79,45,30.00,29.92,13,5,20,0.00
2014-3-22,80.3,70.5,60.8,69.2,65.6,60.2,99,86,64,30.03,29.93,12,2,15,0.00
2014-3-23,83.2,73.9,65.5,72.6,68.2,63.3,98,84,58,30.01,29.92,14,4,21,0.00
2014-3-24,71.8,68.1,64.7,69.3,66.5,64.0,98,95,90,30.02,29.86,12,3,17,1.88
2014-3-25,79.3,68.9,62.4,70.4,63.0,50.1,99,83,61,30.00,29.81,20,7,30,0.26
2014-3-26,70.4,60.0,49.9,52.1,38.4,29.1,70,47,26,30.21,30.00,17,9,23,0.00
2014-3-27,70.6,61.6,52.0,62.4,54.9,45.5,90,79,64,30.24,30.10,13,5,20,0.00
2014-3-28,83.0,72.1,62.4,69.0,64.8,60.1,94,79,61,30.13,29.93,20,6,28,0.00
2014-3-29,77.5,72.6,67.4,73.9,70.0,65.8,97,92,82,29.99,29.87,19,8,29,0.87
2014-3-30,78.6,67.8,58.7,69.3,57.8,44.9,95,73,34,30.04,29.87,18,9,24,0.00
2014-3-31,80.3,64.3,53.3,58.5,51.7,43.0,91,68,34,30.09,30.01,15,4,20,0.00
2014-4-1,85.4,67.8,55.0,64.4,58.9,51.8,98,77,35,30.12,30.03,13,3,18,0.00
2014-4-2,85.2,69.5,57.9,64.3,60.7,53.9,98,77,35,30.12,30.02,13,3,18,0.01
2014-4-3,81.9,70.3,58.9,66.1,63.0,57.4,96,79,54,30.08,29.97,13,3,17,0.01
2014-4-4,83.3,71.9,62.1,67.8,63.8,-99.9,97,79,50,30.02,29.93,13,4,20,0.00
2014-4-5,84.5,73.3,63.7,71.9,66.2,62.3,98,81,50,29.99,29.91,13,2,19,0.01
2014-4-6,83.9,73.6,63.0,70.4,66.6,62.1,98,81,54,29.98,29.85,16,4,23,0.01
2014-4-7,86.7,77.3,70.0,73.7,69.5,64.0,93,78,47,29.90,29.78,20,7,30,0.03
2014-4-8,78.1,73.7,67.8,75.3,69.4,-99.9,96,88,70,29.85,29.70,21,9,32,0.58
2014-4-9,76.2,69.0,61.6,59.0,55.5,51.6,83,63,47,30.11,29.84,22,12,34,0.00
2014-4-10,83.3,69.4,55.8,58.6,54.5,49.8,91,63,35,30.20,30.10,17,5,21,0.00
2014-4-11,86.0,71.3,56.5,68.1,59.7,53.3,90,69,38,30.18,30.03,13,4,18,0.00
2014-4-12,88.3,75.2,64.8,67.8,62.9,55.8,96,69,37,30.11,29.98,14,5,19,0.00
2014-4-13,84.6,72.7,63.6,69.1,65.5,60.8,95,79,53,30.04,29.91,17,6,25,0.00
2014-4-14,85.6,76.4,68.2,72.9,70.0,66.1,98,82,55,29.93,29.82,12,4,17,0.00
2014-4-15,83.3,76.2,70.7,76.0,72.3,66.3,96,88,74,29.88,29.78,19,8,28,0.00
2014-4-16,80.8,70.4,62.5,66.5,62.2,57.1,89,76,57,30.03,29.87,17,8,24,0.00
2014-4-17,90.1,73.8,66.5,73.6,67.7,63.1,95,82,55,30.07,29.96,22,7,37,0.84
2014-4-18,83.5,74.6,71.5,73.2,70.1,-99.9,95,87,68,30.03,29.87,19,6,26,0.00
2014-4-19,76.5,72.4,66.8,73.0,65.9,58.2,96,81,66,29.93,29.82,20,8,28,0.00
2014-4-20,79.4,69.7,62.7,65.0,61.8,58.3,92,77,57,29.99,29.91,13,6,19,0.00
2014-4-21,79.6,68.6,59.5,63.7,60.4,57.6,95,76,56,30.01,29.88,15,6,20,0.00
2014-4-22,79.6,68.7,58.3,64.8,60.8,-99.9,96,78,57,29.93,29.81,17,4,20,0.00
2014-4-23,81.3,71.5,62.5,67.7,64.4,60.8,95,79,58,29.91,29.82,17,6,24,0.00
2014-4-24,83.5,71.3,60.7,68.0,63.4,-99.9,97,79,46,29.96,29.87,12,2,16,0.01
2014-4-25,87.5,74.0,61.9,70.6,64.7,61.0,98,76,44,29.97,29.87,17,4,23,0.00
2014-4-26,88.8,75.7,64.3,71.6,67.6,62.0,96,78,46,29.95,29.88,16,4,21,0.00
2014-4-27,90.0,78.0,67.2,72.6,69.2,65.0,96,76,48,29.94,29.85,16,4,20,0.00
2014-4-28,89.6,79.8,71.1,74.5,70.2,62.0,93,75,43,29.92,29.81,15,5,22,0.00
2014-4-29,91.3,80.9,74.4,75.5,72.3,66.4,94,77,48,29.93,29.79,20,6,28,0.00
2014-4-30,89.1,80.4,74.0,77.3,73.0,68.5,92,79,62,29.98,29.86,14,6,22,0.00
2014-5-1,88.6,79.7,71.3,75.8,72.9,68.5,94,81,59,29.96,29.87,18,6,25,0.00
2014-5-2,85.6,78.0,70.2,74.6,72.0,66.9,95,83,57,29.90,29.80,18,6,26,0.14
2014-5-3,78.0,73.3,67.8,72.8,70.2,65.4,97,90,78,29.96,29.81,23,4,31,1.49
2014-5-4,87.3,75.3,62.1,65.4,56.3,-99.9,93,56,29,30.03,29.93,17,8,24,0.00
2014-5-5,92.0,74.8,60.4,68.7,60.1,52.3,87,64,29,30.01,29.89,14,3,20,0.00
2014-5-6,88.2,76.1,64.7,70.4,66.3,60.5,92,74,41,29.98,29.88,13,3,16,0.00
2014-5-7,90.9,78.1,65.5,71.6,67.4,63.0,95,72,40,30.06,29.93,13,4,18,0.00
2014-5-8,92.3,80.7,70.6,70.1,67.7,60.4,89,67,36,30.10,30.01,17,6,23,0.00
2014-5-9,92.0,80.1,70.4,71.0,68.6,61.0,92,70,38,30.10,29.97,17,6,25,0.00
2014-5-10,90.1,79.9,70.2,74.2,70.9,67.5,94,75,54,30.07,29.96,14,5,19,0.00
2014-5-11,92.0,80.7,73.8,73.1,69.3,-99.9,91,71,44,30.06,29.94,15,6,21,0.00
2014-5-12,91.5,80.4,69.7,72.1,67.7,63.3,90,67,46,30.05,29.95,18,6,24,0.00
2014-5-13,90.6,78.8,69.4,76.0,71.6,67.6,95,79,54,29.99,29.88,22,7,27,0.14
2014-5-14,91.3,79.0,73.2,74.1,72.6,69.1,94,82,50,29.96,29.87,22,6,33,0.09
2014-5-15,85.8,78.4,74.0,77.0,73.0,-99.9,95,85,71,29.93,29.84,18,7,28,0.04
2014-5-16,84.9,75.5,65.7,70.5,57.0,43.1,87,57,25,30.04,29.91,18,9,23,0.00
2014-5-17,88.0,73.3,59.3,60.0,54.4,48.8,87,55,29,30.07,29.97,19,7,29,0.00
2014-5-18,88.5,75.0,61.4,64.8,60.2,57.3,88,63,38,30.07,29.97,19,7,24,0.00
2014-5-19,89.8,76.2,62.3,66.1,61.7,57.3,94,64,34,30.08,30.00,19,6,28,0.00
2014-5-20,91.8,76.9,63.1,67.6,63.1,58.8,94,66,34,30.12,30.02,18,6,29,0.00
2014-5-21,91.9,76.8,63.3,69.5,63.5,59.1,93,67,36,30.11,30.02,16,4,21,0.00
2014-5-22,92.1,77.1,64.4,71.8,66.4,60.3,93,72,37,30.10,29.97,17,4,23,0.00
2014-5-23,90.2,78.5,69.6,73.7,70.1,64.7,94,77,45,30.05,29.96,17,5,24,0.00
2014-5-24,90.5,79.7,70.4,75.3,71.4,65.0,98,78,50,30.03,29.92,15,4,21,0.00
2014-5-25,95.1,81.7,73.6,75.6,71.9,64.7,95,75,38,30.05,29.94,13,3,19,0.00
2014-5-26,94.9,79.8,69.2,73.6,69.9,60.9,94,75,39,30.10,29.98,24,3,33,0.47
2014-5-27,90.5,76.3,68.7,76.0,69.7,-99.9,96,83,45,30.08,29.96,14,2,22,0.76
2014-5-28,92.1,78.5,69.8,75.8,71.1,66.5,96,80,45,30.01,29.90,15,3,22,0.04
2014-5-29,90.8,78.0,70.9,75.2,71.1,68.1,96,81,53,29.96,29.89,21,4,28,0.26
2014-5-30,89.6,77.0,71.5,77.2,71.5,67.2,96,84,53,29.96,29.88,32,3,42,1.04
2014-5-31,92.0,77.9,70.1,76.0,71.3,68.5,96,82,54,29.96,29.88,21,3,30,0.01
2014-6-1,92.9,79.6,71.9,75.6,72.8,69.2,96,81,50,29.97,29.89,20,4,26,0.01
2014-6-2,83.0,77.4,73.4,75.4,72.9,69.5,95,86,74,30.01,29.93,22,7,29,0.38
2014-6-3,84.4,77.6,72.1,69.6,68.1,63.9,87,73,57,30.00,29.91,12,5,18,0.00
2014-6-4,88.6,78.0,68.7,71.9,68.1,63.9,88,73,49,29.94,29.84,13,4,16,0.00
2014-6-5,92.5,80.8,71.9,74.1,71.5,66.6,93,75,45,29.91,29.82,11,3,15,0.00
2014-6-6,93.7,82.3,72.6,75.5,72.6,68.7,96,74,49,29.94,29.83,13,4,19,0.00
2014-6-7,92.5,82.0,73.5,75.6,72.8,68.9,92,75,54,29.96,29.86,16,4,23,0.00
2014-6-8,91.3,81.6,73.4,76.1,73.6,70.2,95,78,57,29.96,29.83,18,5,25,0.03
2014-6-9,90.8,80.1,72.6,77.3,73.2,69.7,95,80,54,29.93,29.84,15,4,20,0.00
2014-6-10,89.8,81.7,75.1,76.8,73.9,67.1,97,78,55,29.95,29.88,12,3,16,0.00
2014-6-11,89.1,80.8,72.6,77.3,74.0,70.3,94,81,61,29.98,29.87,20,4,29,0.11
2014-6-12,89.8,80.5,71.8,76.0,72.8,68.4,95,79,53,29.97,29.87,17,6,24,0.04
2014-6-13,88.5,79.7,71.9,77.2,72.7,70.0,95,80,59,30.00,29.90,17,4,21,0.38
2014-6-14,89.3,78.1,70.3,77.5,72.2,-99.9,95,84,62,30.04,29.90,22,4,29,0.91
2014-6-15,95.1,78.2,72.4,77.3,71.8,66.2,94,82,49,30.07,29.96,15,4,23,0.01
2014-6-16,94.2,79.3,69.6,77.5,70.8,67.7,95,78,49,30.09,29.98,18,4,24,0.00
2014-6-17,93.0,79.0,70.3,75.0,70.7,67.9,96,77,50,30.07,29.98,19,4,25,0.07
2014-6-18,91.4,78.0,70.5,75.1,70.5,67.8,95,80,51,30.04,29.98,31,3,44,0.00
2014-11-22,82.1,73.6,66.4,70.9,67.9,61.1,92,83,69,30.12,29.98,18,8,0,0.00
2014-11-23,85.0,77.1,71.4,74.7,72.5,69.9,96,86,69,29.98,29.82,18,5,0,0.00
2014-11-24,84.5,77.1,71.2,76.9,73.4,69.4,98,89,71,29.96,29.84,12,3,0,0.04
2014-11-25,84.5,78.6,73.2,77.6,75.4,72.0,97,90,77,29.94,29.82,17,5,0,0.61
2014-11-26,73.2,62.6,52.5,72.1,57.8,46.5,98,85,66,30.17,29.81,21,7,0,1.49
2014-11-27,75.8,60.9,49.8,58.9,49.7,41.7,88,68,48,30.24,30.11,14,6,0,0.00
2014-11-28,68.5,55.6,45.8,45.4,39.8,32.3,80,58,27,30.26,30.15,16,8,14,0.00
2014-11-29,77.7,61.9,49.6,57.0,52.9,45.1,89,74,49,30.23,30.13,9,4,14,0.00
2014-11-30,80.1,65.7,54.3,61.2,56.1,52.0,94,74,45,30.23,30.13,11,3,18,0.00
2014-12-1,82.3,70.8,60.5,66.3,62.7,57.3,94,77,52,30.21,30.08,11,5,18,0.00
2014-12-2,82.4,70.9,62.7,69.5,65.7,61.3,96,85,62,30.13,30.02,10,4,14,0.01
2014-12-3,85.1,71.8,63.2,70.0,64.1,61.6,96,79,50,30.10,29.99,10,3,12,0.00
2014-12-4,83.9,71.9,62.9,69.4,65.4,60.8,94,81,59,30.12,30.01,11,5,18,0.00
2014-12-5,85.2,72.7,65.2,72.0,67.6,63.7,97,85,61,30.16,30.05,8,3,14,0.01
2014-12-6,86.9,73.0,67.6,70.8,68.0,66.0,97,86,56,30.15,30.02,9,2,13,0.02
2014-12-7,76.0,67.7,62.8,67.4,64.6,60.1,98,90,73,30.05,29.96,8,3,12,0.01
2014-12-8,75.4,64.2,58.6,63.3,59.7,56.1,96,86,60,30.05,29.94,9,3,14,0.00
2014-12-9,68.0,60.0,55.4,60.6,54.5,47.2,96,83,53,30.04,29.94,15,8,19,0.04
2014-12-10,69.8,57.0,47.4,50.6,46.5,41.8,94,70,43,30.10,30.01,11,3,14,0.00
2014-12-11,69.7,55.9,45.9,55.3,50.7,44.2,96,84,58,30.15,30.05,7,1,10,0.00
2014-12-12,65.7,54.6,49.5,52.1,45.1,35.6,95,73,36,30.22,30.10,10,2,14,0.01
2014-12-13,74.2,57.1,44.6,52.9,44.8,37.0,87,67,27,30.13,30.01,9,2,12,0.00
2014-12-14,75.2,57.0,43.1,51.1,44.5,34.5,93,68,26,30.06,29.96,7,1,11,0.00
2014-12-15,75.5,57.3,44.0,51.5,46.7,42.0,95,73,32,30.08,29.99,5,1,7,0.00
2014-12-16,76.0,59.0,47.1,56.7,51.9,45.8,97,81,46,30.16,30.06,6,1,8,0.01
2014-12-17,77.2,63.0,52.0,64.5,57.1,51.2,98,84,49,30.15,30.03,7,1,11,0.01
2014-12-18,74.6,60.6,49.1,60.3,55.1,47.7,96,83,59,30.13,30.01,8,2,11,0.00
2014-12-19,79.3,60.6,46.9,56.5,52.3,46.1,97,78,39,30.07,29.95,4,0,8,0.00
2014-12-20,79.3,64.9,51.9,65.2,58.8,50.1,96,82,58,30.04,29.95,8,1,14,0.01
2014-12-21,80.1,69.9,60.6,69.0,65.2,59.6,97,86,65,30.03,29.91,7,2,11,0.09
2014-12-22,79.4,72.3,68.0,71.8,68.9,65.9,97,89,74,29.97,29.85,11,3,20,0.00
2014-12-23,82.4,74.6,66.0,73.0,70.2,65.1,98,87,69,29.89,29.80,9,3,16,0.01
2014-12-24,81.5,75.1,67.9,74.5,71.6,63.9,95,89,79,29.92,29.79,15,7,23,0.07
2014-12-25,75.5,68.2,59.4,63.9,59.2,54.2,89,74,52,30.14,29.92,10,4,16,0.00
2014-12-26,73.8,64.9,55.4,64.7,59.1,51.6,92,82,69,30.15,30.07,8,4,11,0.00
2014-12-27,81.4,71.3,66.2,71.4,67.2,63.8,96,88,67,30.18,30.07,4,1,7,0.00
2014-12-28,80.8,70.7,62.2,71.5,66.2,61.0,98,87,65,30.12,30.01,9,2,15,0.00
2014-12-29,81.1,70.4,62.5,73.1,67.2,61.6,98,90,72,30.08,29.99,11,2,15,0.01
2014-12-30,83.6,71.7,63.4,72.9,67.8,62.8,99,89,65,30.14,30.02,7,2,10,0.01
2014-12-31,79.1,69.4,64.7,71.0,66.3,63.1,96,90,74,30.18,30.08,9,4,11,0.01
2015-1-1,79.8,69.0,63.1,70.2,66.0,62.2,97,91,72,30.17,30.05,7,3,11,0.00
2015-1-2,83.7,72.5,66.5,73.5,69.0,65.6,98,90,65,30.18,30.07,5,1,7,0.01